createdAt,value
2023-02-09T00:00:14.381Z,98.50
2023-02-09T00:02:44.524Z,98.90
2023-02-09T00:05:13.571Z,94.88
2023-02-09T00:07:42.866Z,98.85
2023-02-09T00:10:12.089Z,100.25
2023-02-09T00:12:59.873Z,101.60
2023-02-09T00:15:29.128Z,99.22
2023-02-09T00:17:58.147Z,94.30
2023-02-09T00:20:27.449Z,93.50
2023-02-09T00:22:56.503Z,94.97
2023-02-09T00:25:25.741Z,92.90
2023-02-09T00:27:55.115Z,97.70
2023-02-09T00:30:24.580Z,99.03
2023-02-09T00:32:53.624Z,102.68
2023-02-09T00:35:23.018Z,105.40
2023-02-09T00:37:52.060Z,100.85
2023-02-09T00:40:21.440Z,102.47
2023-02-09T00:42:50.439Z,108.65
2023-02-09T00:45:19.918Z,108.20
2023-02-09T00:47:48.964Z,115.53
2023-02-09T00:50:18.480Z,114.45
2023-02-09T00:52:47.594Z,114.47
2023-02-09T00:55:18.223Z,118.68
2023-02-09T00:57:47.457Z,116.03
2023-02-09T01:00:19.551Z,112.68
2023-02-09T01:02:50.797Z,112.30
2023-02-09T01:05:23.709Z,111.60
2023-02-09T01:07:57.891Z,103.72
2023-02-09T01:10:29.498Z,98.93
2023-02-09T01:13:01.678Z,100.68
2023-02-09T01:15:32.984Z,100.50
2023-02-09T01:18:04.030Z,92.60
2023-02-09T01:20:34.370Z,94.85
2023-02-09T01:23:04.900Z,92.75
2023-02-09T01:25:34.917Z,83.22
2023-02-09T01:28:04.948Z,75.45
2023-02-09T01:30:36.257Z,68.93
2023-02-09T01:33:06.324Z,63.20
2023-02-09T01:35:36.215Z,61.70
2023-02-09T01:38:06.322Z,61.67
2023-02-09T01:40:37.760Z,71.70
2023-02-09T01:43:09.029Z,87.68
2023-02-09T01:45:56.186Z,90.10
2023-02-09T01:48:30.436Z,99.18
2023-02-09T01:51:03.079Z,105.28
2023-02-09T01:56:26.006Z,82.72
2023-02-09T01:58:57.371Z,75.22
2023-02-09T02:01:28.580Z,80.80
2023-02-09T02:03:58.781Z,83.32
2023-02-09T02:06:28.685Z,84.72
2023-02-09T02:09:04.569Z,100.43
2023-02-09T02:11:34.521Z,115.60
2023-02-09T02:14:04.160Z,120.20
2023-02-09T02:16:50.689Z,129.00
2023-02-09T02:20:01.259Z,121.63
2023-02-09T02:23:19.747Z,102.03
2023-02-09T02:26:21.448Z,94.40
2023-02-09T02:29:08.106Z,89.20
2023-02-09T02:32:03.937Z,85.38
2023-02-09T02:35:09.569Z,82.63
2023-02-09T02:38:03.792Z,84.65
2023-02-09T02:40:54.138Z,79.60
2023-02-09T02:43:54.729Z,73.90
2023-02-09T02:46:50.365Z,72.20
2023-02-09T02:49:44.136Z,75.25
2023-02-09T02:52:14.008Z,69.55
2023-02-09T02:54:51.386Z,71.72
2023-02-09T02:57:25.088Z,70.72
2023-02-09T03:00:08.457Z,69.35
2023-02-09T03:02:46.205Z,68.68
2023-02-09T03:05:18.155Z,67.88
2023-02-09T03:07:48.282Z,72.80
2023-02-09T03:10:36.252Z,74.78
2023-02-09T03:13:14.076Z,69.97
2023-02-09T03:16:20.535Z,68.65
2023-02-09T03:19:03.148Z,67.75
2023-02-09T03:21:38.873Z,66.35
2023-02-09T03:24:31.233Z,67.53
2023-02-09T03:27:11.748Z,67.65
2023-02-09T03:29:45.599Z,63.70
2023-02-09T03:32:17.349Z,67.00
2023-02-09T03:34:47.952Z,65.03
2023-02-09T03:37:19.341Z,67.50
2023-02-09T03:39:51.053Z,62.92
2023-02-09T03:42:21.977Z,62.57
2023-02-09T03:44:51.885Z,67.25
2023-02-09T03:47:21.540Z,70.22
2023-02-09T03:49:51.678Z,67.07
2023-02-09T03:52:21.762Z,66.75
2023-02-09T03:54:51.850Z,67.22
2023-02-09T03:57:21.881Z,67.80
2023-02-09T03:59:51.718Z,68.95
2023-02-09T04:02:21.724Z,67.72
2023-02-09T04:04:52.073Z,72.28
2023-02-09T04:07:28.002Z,71.50
2023-02-09T04:09:58.013Z,68.10
2023-02-09T04:12:27.867Z,70.15
2023-02-09T04:14:57.856Z,67.78
2023-02-09T04:17:27.813Z,69.22
2023-02-09T04:19:57.848Z,65.90
2023-02-09T04:22:28.408Z,66.35
2023-02-09T04:24:58.458Z,63.42
2023-02-09T04:27:29.685Z,62.83
2023-02-09T04:29:59.913Z,62.72
2023-02-09T04:32:30.032Z,61.80
2023-02-09T04:34:59.967Z,90.30
2023-02-09T04:37:29.947Z,62.80
2023-02-09T04:39:59.525Z,59.63
2023-02-09T04:42:30.066Z,55.30
2023-02-09T04:45:00.669Z,58.40
2023-02-09T04:47:30.878Z,51.60
2023-02-09T04:50:00.968Z,61.47
2023-02-09T04:52:31.069Z,55.53
2023-02-09T04:55:01.289Z,53.22
2023-02-09T04:57:50.122Z,55.25
2023-02-09T05:00:21.587Z,50.70
2023-02-09T05:02:51.558Z,49.78
2023-02-09T05:05:22.340Z,50.80
2023-02-09T05:07:52.526Z,47.20
2023-02-09T05:10:22.703Z,45.17
2023-02-09T05:12:53.881Z,45.03
2023-02-09T05:15:23.942Z,42.22
2023-02-09T05:17:53.950Z,44.13
2023-02-09T05:20:23.639Z,44.58
2023-02-09T05:22:53.770Z,45.70
2023-02-09T05:25:23.883Z,44.70
2023-02-09T05:27:53.974Z,43.90
2023-02-09T05:30:24.120Z,43.95
2023-02-09T05:32:54.284Z,40.10
2023-02-09T05:35:24.208Z,40.35
2023-02-09T05:37:54.347Z,39.55
2023-02-09T05:40:24.544Z,38.65
2023-02-09T05:42:54.682Z,39.97
2023-02-09T05:45:24.927Z,38.53
2023-02-09T05:47:54.670Z,38.67
2023-02-09T05:50:24.988Z,37.95
2023-02-09T05:53:00.237Z,38.42
2023-02-09T05:55:30.403Z,36.88
2023-02-09T05:58:00.523Z,37.88
2023-02-09T06:00:30.968Z,39.83
2023-02-09T06:03:01.253Z,38.88
2023-02-09T06:05:31.230Z,43.65
2023-02-09T06:08:01.281Z,40.40
2023-02-09T06:10:31.012Z,41.92
2023-02-09T06:13:01.116Z,41.45
2023-02-09T06:15:31.263Z,43.17
2023-02-09T06:18:02.623Z,43.85
2023-02-09T06:20:32.745Z,42.70
2023-02-09T06:23:02.872Z,42.83
2023-02-09T06:25:32.767Z,42.63
2023-02-09T06:28:03.550Z,42.38
2023-02-09T06:30:33.434Z,38.47
2023-02-09T06:33:02.914Z,41.45
2023-02-09T06:35:33.132Z,38.88
2023-02-09T06:38:03.259Z,41.88
2023-02-09T06:40:33.352Z,39.90
2023-02-09T06:43:03.964Z,41.80
2023-02-09T06:45:34.145Z,38.65
2023-02-09T09:42:03.216Z,55.33
2023-02-09T09:44:38.751Z,58.80
2023-02-09T09:47:13.592Z,73.95
2023-02-09T09:49:42.970Z,72.03
2023-02-09T09:52:40.328Z,91.45
2023-02-09T09:55:16.152Z,83.97
2023-02-09T09:58:40.530Z,83.28
2023-02-09T10:01:18.853Z,81.75
2023-02-09T10:03:48.330Z,83.15
2023-02-09T10:06:23.030Z,83.95
2023-02-09T10:09:35.982Z,85.82
2023-02-09T10:12:26.615Z,82.63
2023-02-09T10:14:56.017Z,89.15
2023-02-09T10:17:24.872Z,90.13
2023-02-09T10:20:08.490Z,87.47
2023-02-09T10:22:37.754Z,88.28
2023-02-09T10:25:49.879Z,87.18
2023-02-09T10:28:27.764Z,85.35
2023-02-09T10:31:00.051Z,82.00
2023-02-09T10:33:39.279Z,77.90
2023-02-09T10:36:22.829Z,76.80
2023-02-09T10:38:52.617Z,79.13
2023-02-09T10:41:23.896Z,86.80
2023-02-09T10:43:54.036Z,76.95
2023-02-09T10:46:23.759Z,80.78
2023-02-09T10:48:52.572Z,73.18
2023-02-09T10:51:34.791Z,71.85
2023-02-09T10:54:08.282Z,70.50
2023-02-09T10:56:43.961Z,67.22
2023-02-09T10:59:25.847Z,66.55
2023-02-09T11:02:03.510Z,68.13
2023-02-09T11:04:40.045Z,64.78
2023-02-09T11:07:16.257Z,63.70
2023-02-09T11:09:50.130Z,62.28
2023-02-09T11:12:21.444Z,64.40
2023-02-09T11:14:50.746Z,60.03
2023-02-09T11:17:37.565Z,59.08
2023-02-09T11:20:19.223Z,57.17
2023-02-09T11:22:48.507Z,59.10
2023-02-09T11:25:26.717Z,61.20
2023-02-09T11:28:25.029Z,60.13
2023-02-09T11:31:18.128Z,56.63
2023-02-09T11:34:08.947Z,59.80
2023-02-09T11:36:57.913Z,57.25
2023-02-09T11:39:40.704Z,56.92
2023-02-09T11:45:32.007Z,57.10
2023-02-09T11:48:12.416Z,56.13
2023-02-09T11:51:08.744Z,53.40
2023-02-09T11:53:44.244Z,55.42
2023-02-09T11:56:19.327Z,55.20
2023-02-09T11:59:15.806Z,55.50
2023-02-09T12:01:51.250Z,55.22
2023-02-09T12:04:38.904Z,54.00
2023-02-09T12:07:32.808Z,55.10
2023-02-09T12:10:04.983Z,55.03
2023-02-09T12:13:00.134Z,55.47
2023-02-09T12:15:50.983Z,54.67
2023-02-09T12:18:27.259Z,59.17
2023-02-09T12:21:02.664Z,53.47
2023-02-09T12:23:39.051Z,57.45
2023-02-09T12:26:17.728Z,53.90
2023-02-09T12:29:04.556Z,61.97
2023-02-09T12:32:08.895Z,52.40
2023-02-09T12:34:47.631Z,52.00
2023-02-09T12:37:27.455Z,60.17
2023-02-09T12:40:19.376Z,58.58
2023-02-09T12:43:11.690Z,57.20
2023-02-09T12:45:44.017Z,49.10
2023-02-09T12:48:16.350Z,51.13
2023-02-09T12:50:47.468Z,48.95
2023-02-09T12:53:25.802Z,51.55
2023-02-09T12:56:10.352Z,49.55
2023-02-09T12:58:44.981Z,48.75
2023-02-09T13:01:16.587Z,48.38
2023-02-09T13:04:04.642Z,47.50
2023-02-09T13:06:52.667Z,45.72
2023-02-09T13:09:30.408Z,49.88
2023-02-09T13:12:05.994Z,44.97
2023-02-09T13:14:35.314Z,42.80
2023-02-09T13:17:10.128Z,42.28
2023-02-09T13:20:12.478Z,40.70
2023-02-09T13:23:07.675Z,41.28
2023-02-09T13:25:40.124Z,39.10
2023-02-09T13:30:49.078Z,41.83
2023-02-09T13:33:49.646Z,43.25
2023-02-09T13:37:00.938Z,40.83
2023-02-09T13:39:40.675Z,38.75
2023-02-09T13:42:27.085Z,38.17
2023-02-09T13:45:00.810Z,40.20
2023-02-09T13:47:30.432Z,39.28
2023-02-09T13:50:24.695Z,42.50
2023-02-09T13:52:54.103Z,41.00
2023-02-09T13:55:24.428Z,39.80
2023-02-09T13:58:01.905Z,43.72
2023-02-09T14:00:51.063Z,45.08
2023-02-09T14:03:27.698Z,45.47
2023-02-09T14:06:16.160Z,50.08
2023-02-09T14:08:48.770Z,54.38
2023-02-09T14:11:42.656Z,63.60
2023-02-09T14:14:16.686Z,64.28
2023-02-09T14:16:53.504Z,68.40
2023-02-09T14:19:33.719Z,68.07
2023-02-09T14:22:03.024Z,67.32
2023-02-09T14:24:52.514Z,69.53
2023-02-09T14:27:27.590Z,68.25
2023-02-09T14:29:57.820Z,69.22
2023-02-09T14:32:37.321Z,73.22
2023-02-09T14:35:40.395Z,78.32
2023-02-09T14:38:48.777Z,79.72
2023-02-09T14:41:34.099Z,75.65
2023-02-09T14:44:09.299Z,81.53
2023-02-09T14:46:59.367Z,81.80
2023-02-09T14:49:30.304Z,79.82
2023-02-09T14:52:14.781Z,75.63
2023-02-09T14:54:49.636Z,79.15
2023-02-09T14:57:19.186Z,76.05
2023-02-09T14:59:48.038Z,77.30
2023-02-09T15:02:21.251Z,74.03
2023-02-09T15:04:50.536Z,78.80
2023-02-09T15:07:36.543Z,77.70
2023-02-09T15:10:09.173Z,75.07
2023-02-09T15:12:38.299Z,78.13
2023-02-09T15:15:07.296Z,83.30
2023-02-09T15:17:36.652Z,81.10
2023-02-09T15:20:05.797Z,84.25
2023-02-09T15:22:34.694Z,80.72
2023-02-09T15:25:03.663Z,83.18
2023-02-09T15:28:03.991Z,84.80
2023-02-09T15:30:35.905Z,81.85
2023-02-09T15:33:07.436Z,84.82
2023-02-09T15:35:36.644Z,84.28
2023-02-09T15:38:05.528Z,82.20
2023-02-09T15:41:04.020Z,84.43
2023-02-09T15:43:51.501Z,79.25
2023-02-09T15:46:39.441Z,80.80
2023-02-09T15:49:08.686Z,80.10
2023-02-09T15:51:40.403Z,76.85
2023-02-09T15:54:24.041Z,77.90
2023-02-09T15:56:53.659Z,76.05
2023-02-09T15:59:24.927Z,77.45
2023-02-09T16:01:54.437Z,75.10
2023-02-09T16:04:23.378Z,74.70
2023-02-09T16:06:54.762Z,74.40
2023-02-09T16:09:28.557Z,74.53
2023-02-09T16:11:58.233Z,73.15
2023-02-09T16:14:28.470Z,76.53
2023-02-09T16:16:57.456Z,70.95
2023-02-09T16:19:26.293Z,71.85
2023-02-09T16:21:58.908Z,71.22
2023-02-09T16:24:43.031Z,72.18
2023-02-09T16:27:28.960Z,71.63
2023-02-09T16:29:59.127Z,69.07
2023-02-09T16:32:29.522Z,71.10
2023-02-09T16:35:11.120Z,73.05
2023-02-09T16:37:48.095Z,69.55
2023-02-09T16:40:26.022Z,70.65
2023-02-09T16:42:56.383Z,69.85
2023-02-09T16:45:26.977Z,72.80
2023-02-09T16:47:59.355Z,72.47
2023-02-09T16:50:53.948Z,73.88
2023-02-09T16:53:34.196Z,80.07
2023-02-09T16:56:11.066Z,74.90
2023-02-09T16:58:40.987Z,83.97
2023-02-09T17:01:18.409Z,83.47
2023-02-09T17:03:58.036Z,72.88
2023-02-09T17:06:31.305Z,70.68
2023-02-09T17:09:00.955Z,76.57
2023-02-09T17:11:30.331Z,75.40
2023-02-09T17:13:59.742Z,68.93
2023-02-09T17:16:34.202Z,79.13
2023-02-09T17:19:04.906Z,87.18
2023-02-09T17:21:40.482Z,78.80
2023-02-09T17:24:27.738Z,80.22
2023-02-09T17:26:57.332Z,79.63
2023-02-09T17:29:26.756Z,73.60
2023-02-09T17:31:55.900Z,68.88
2023-02-09T17:34:28.088Z,63.63
2023-02-09T17:36:58.225Z,64.22
2023-02-09T17:39:28.151Z,64.20
2023-02-09T17:41:59.739Z,66.65
2023-02-09T17:44:45.123Z,67.07
2023-02-09T17:47:21.044Z,144.00
2023-02-09T17:49:50.530Z,196.75
2023-02-09T17:52:21.125Z,358.23
2023-02-09T17:54:52.015Z,221.63
2023-02-09T17:57:22.052Z,118.43
2023-02-09T17:59:51.332Z,124.95
2023-02-09T18:02:21.512Z,96.57
2023-02-09T18:04:50.816Z,80.45
2023-02-09T18:07:21.634Z,70.82
2023-02-09T18:09:51.317Z,65.75
2023-02-09T18:12:23.710Z,66.15
2023-02-09T18:14:53.020Z,61.53
2023-02-09T18:17:22.151Z,61.13
2023-02-09T18:19:51.611Z,64.28
2023-02-09T18:22:21.053Z,61.90
2023-02-09T18:24:51.563Z,68.10
2023-02-09T18:27:22.023Z,74.10
2023-02-09T18:29:51.363Z,73.22
2023-02-09T18:32:21.966Z,75.30
2023-02-09T18:34:51.899Z,79.68
2023-02-09T18:37:20.852Z,77.63
2023-02-09T18:39:50.269Z,70.55
2023-02-09T18:42:19.322Z,70.35
2023-02-09T18:44:48.625Z,68.80
2023-02-09T18:47:17.598Z,68.32
2023-02-09T18:49:46.852Z,65.68
2023-02-09T18:52:18.129Z,64.68
2023-02-09T18:54:47.782Z,64.25
2023-02-09T18:57:16.603Z,64.32
2023-02-09T18:59:47.856Z,66.70
2023-02-09T19:02:17.377Z,69.65
2023-02-09T19:04:46.415Z,68.28
2023-02-09T19:07:17.134Z,66.18
2023-02-09T19:09:46.910Z,67.93
2023-02-09T19:12:15.800Z,68.03
2023-02-09T19:14:47.542Z,66.90
2023-02-09T19:17:19.433Z,63.93
2023-02-09T19:19:49.909Z,59.43
2023-02-09T19:22:21.930Z,65.85
2023-02-09T19:24:53.277Z,60.45
2023-02-09T19:27:22.641Z,67.20
2023-02-09T19:29:55.855Z,67.05
2023-02-09T19:32:27.329Z,64.63
2023-02-09T19:34:56.783Z,65.60
2023-02-09T19:37:25.753Z,62.65
2023-02-09T19:40:04.617Z,63.47
2023-02-09T19:42:34.966Z,63.45
2023-02-09T19:45:04.441Z,60.38
2023-02-09T19:47:33.477Z,59.83
2023-02-09T19:50:02.910Z,61.55
2023-02-09T19:52:32.030Z,58.92
2023-02-09T19:55:01.365Z,59.75
2023-02-09T19:57:30.492Z,60.13
2023-02-09T19:59:59.560Z,57.00
2023-02-09T20:02:28.629Z,59.00
2023-02-09T20:04:57.750Z,57.75
2023-02-09T20:07:27.077Z,57.20
2023-02-09T20:09:58.072Z,54.97
2023-02-09T20:12:27.456Z,52.53
2023-02-09T20:14:56.578Z,52.38
2023-02-09T20:17:26.105Z,55.67
2023-02-09T20:19:55.797Z,58.58
2023-02-09T20:22:24.940Z,54.45
2023-02-09T20:24:54.450Z,52.33
2023-02-09T20:27:24.824Z,52.25
2023-02-09T20:29:58.159Z,56.58
2023-02-09T20:32:27.369Z,50.53
2023-02-09T20:34:56.636Z,52.10
2023-02-09T20:37:26.001Z,49.67
2023-02-09T20:39:55.384Z,52.83
2023-02-09T20:42:42.498Z,51.17
2023-02-09T20:45:42.782Z,51.15
2023-02-09T20:48:12.271Z,51.92
2023-02-09T20:50:41.225Z,49.80
2023-02-09T20:53:10.669Z,52.05
2023-02-09T20:55:39.452Z,50.63
2023-02-09T20:58:09.489Z,48.17
2023-02-09T21:00:39.000Z,51.47
2023-02-09T21:03:08.541Z,47.67
2023-02-09T21:05:37.429Z,47.05
2023-02-09T21:08:08.730Z,48.78
2023-02-09T21:10:39.283Z,47.35
2023-02-09T21:13:09.766Z,45.63
2023-02-09T21:15:43.389Z,46.30
2023-02-09T21:18:12.975Z,45.42
2023-02-09T21:20:41.815Z,45.58
2023-02-09T21:23:11.304Z,44.03
2023-02-09T21:25:40.202Z,43.78
2023-02-09T21:28:09.619Z,45.03
2023-02-09T21:30:43.519Z,46.80
2023-02-09T21:33:12.639Z,42.85
2023-02-09T21:35:42.314Z,44.13
2023-02-09T21:38:11.467Z,46.95
2023-02-09T21:40:40.506Z,43.00
2023-02-09T21:43:09.720Z,45.58
2023-02-09T21:45:41.626Z,46.10
2023-02-09T21:48:11.036Z,46.10
2023-02-09T21:50:40.562Z,46.10
2023-02-09T21:53:09.960Z,44.03
2023-02-09T21:55:38.923Z,44.42
2023-02-09T21:58:08.004Z,45.97
2023-02-09T22:00:37.046Z,42.03
2023-02-09T22:03:06.284Z,46.25
2023-02-09T22:05:35.181Z,41.83
2023-02-09T22:08:04.576Z,44.10
2023-02-09T22:10:33.452Z,43.72
2023-02-09T22:13:09.341Z,44.10
2023-02-09T22:15:42.210Z,46.03
2023-02-09T22:18:11.881Z,48.28
2023-02-09T22:20:45.674Z,44.20
2023-02-09T22:23:15.620Z,41.75
2023-02-09T22:25:44.778Z,41.80
2023-02-09T22:28:14.890Z,48.85
2023-02-09T22:30:44.423Z,43.13
2023-02-09T22:33:13.675Z,45.70
2023-02-09T22:35:44.017Z,43.70
2023-02-09T22:38:13.561Z,43.15
2023-02-09T22:40:42.605Z,42.53
2023-02-09T22:43:11.823Z,42.17
2023-02-09T22:45:41.324Z,43.15
2023-02-09T22:48:12.223Z,43.78
2023-02-09T22:50:41.869Z,43.03
2023-02-09T22:53:10.999Z,41.05
2023-02-09T22:55:40.390Z,40.38
2023-02-09T22:58:09.738Z,42.42
2023-02-09T23:00:39.088Z,42.05
2023-02-09T23:03:08.261Z,40.63
2023-02-09T23:05:37.613Z,39.75
2023-02-09T23:08:06.922Z,41.70
2023-02-09T23:10:36.038Z,43.95
2023-02-09T23:13:04.822Z,39.90
2023-02-09T23:15:34.290Z,41.10
2023-02-09T23:18:03.256Z,41.72
2023-02-09T23:20:32.292Z,40.97
2023-02-09T23:23:07.366Z,42.88
2023-02-09T23:25:36.919Z,41.40
2023-02-09T23:28:05.972Z,43.65
2023-02-09T23:30:35.622Z,44.17
2023-02-09T23:33:04.735Z,43.88
2023-02-09T23:35:33.770Z,41.75
2023-02-09T23:38:02.723Z,44.03
2023-02-09T23:40:32.597Z,43.03
2023-02-09T23:43:01.717Z,44.92
2023-02-09T23:45:31.060Z,44.30
2023-02-09T23:48:00.272Z,42.15
2023-02-09T23:50:29.924Z,40.72
2023-02-09T23:52:58.999Z,43.67
2023-02-09T23:55:28.393Z,46.10
2023-02-09T23:57:57.357Z,43.08
